sensor_id;sensor_type;location;lat;lon;timestamp;temperature;humidity
12839;DHT22;6486;51.034;5.262;2023-04-08T00:01:07;10.60;74.20
12839;DHT22;6486;51.034;5.262;2023-04-08T00:03:33;10.60;74.30
12839;DHT22;6486;51.034;5.262;2023-04-08T00:05:58;10.60;74.30
12839;DHT22;6486;51.034;5.262;2023-04-08T00:08:26;10.60;74.30
12839;DHT22;6486;51.034;5.262;2023-04-08T00:10:52;10.60;74.30
12839;DHT22;6486;51.034;5.262;2023-04-08T00:13:18;10.60;74.30
12839;DHT22;6486;51.034;5.262;2023-04-08T00:15:44;10.60;74.40
12839;DHT22;6486;51.034;5.262;2023-04-08T00:18:10;10.60;74.40
12839;DHT22;6486;51.034;5.262;2023-04-08T00:20:36;10.70;74.50
12839;DHT22;6486;51.034;5.262;2023-04-08T00:23:01;10.70;74.50
12839;DHT22;6486;51.034;5.262;2023-04-08T00:25:27;10.70;74.70
12839;DHT22;6486;51.034;5.262;2023-04-08T00:27:53;10.70;74.60
12839;DHT22;6486;51.034;5.262;2023-04-08T00:30:18;10.70;74.70
12839;DHT22;6486;51.034;5.262;2023-04-08T00:32:44;10.70;74.60
12839;DHT22;6486;51.034;5.262;2023-04-08T00:35:10;10.70;74.60
12839;DHT22;6486;51.034;5.262;2023-04-08T00:37:37;10.70;74.60
12839;DHT22;6486;51.034;5.262;2023-04-08T00:40:03;10.80;74.70
12839;DHT22;6486;51.034;5.262;2023-04-08T00:42:29;10.80;74.60
12839;DHT22;6486;51.034;5.262;2023-04-08T00:44:55;10.80;74.60
12839;DHT22;6486;51.034;5.262;2023-04-08T00:47:21;10.80;74.60
12839;DHT22;6486;51.034;5.262;2023-04-08T00:49:46;10.80;74.60
12839;DHT22;6486;51.034;5.262;2023-04-08T00:52:12;10.80;74.70
12839;DHT22;6486;51.034;5.262;2023-04-08T00:54:38;10.80;74.70
12839;DHT22;6486;51.034;5.262;2023-04-08T00:57:05;10.80;74.80
12839;DHT22;6486;51.034;5.262;2023-04-08T00:59:31;10.80;74.80
12839;DHT22;6486;51.034;5.262;2023-04-08T01:02:30;10.80;74.90
12839;DHT22;6486;51.034;5.262;2023-04-08T01:05:08;10.80;74.90
12839;DHT22;6486;51.034;5.262;2023-04-08T01:07:37;10.80;74.90
12839;DHT22;6486;51.034;5.262;2023-04-08T01:10:25;10.80;75.00
12839;DHT22;6486;51.034;5.262;2023-04-08T01:12:56;10.80;75.70
12839;DHT22;6486;51.034;5.262;2023-04-08T01:15:25;10.80;75.10
12839;DHT22;6486;51.034;5.262;2023-04-08T01:17:53;10.80;75.10
12839;DHT22;6486;51.034;5.262;2023-04-08T01:20:23;10.80;75.20
12839;DHT22;6486;51.034;5.262;2023-04-08T01:25:38;10.80;75.10
12839;DHT22;6486;51.034;5.262;2023-04-08T01:28:11;10.80;75.70
12839;DHT22;6486;51.034;5.262;2023-04-08T01:30:39;10.70;75.10
12839;DHT22;6486;51.034;5.262;2023-04-08T01:33:05;10.70;75.00
12839;DHT22;6486;51.034;5.262;2023-04-08T01:35:32;10.70;75.00
12839;DHT22;6486;51.034;5.262;2023-04-08T01:37:58;10.70;75.10
12839;DHT22;6486;51.034;5.262;2023-04-08T01:40:24;10.70;75.20
12839;DHT22;6486;51.034;5.262;2023-04-08T01:42:53;10.70;75.30
12839;DHT22;6486;51.034;5.262;2023-04-08T01:45:19;10.70;75.40
12839;DHT22;6486;51.034;5.262;2023-04-08T01:47:45;10.70;75.40
12839;DHT22;6486;51.034;5.262;2023-04-08T01:50:13;10.70;75.40
12839;DHT22;6486;51.034;5.262;2023-04-08T01:52:40;10.70;75.50
12839;DHT22;6486;51.034;5.262;2023-04-08T01:55:07;10.70;75.50
12839;DHT22;6486;51.034;5.262;2023-04-08T01:57:36;10.80;75.50
12839;DHT22;6486;51.034;5.262;2023-04-08T02:00:07;10.70;75.40
12839;DHT22;6486;51.034;5.262;2023-04-08T02:02:35;10.70;75.40
12839;DHT22;6486;51.034;5.262;2023-04-08T02:05:01;10.70;75.30
12839;DHT22;6486;51.034;5.262;2023-04-08T02:07:28;10.70;75.30
12839;DHT22;6486;51.034;5.262;2023-04-08T02:09:54;10.70;75.40
12839;DHT22;6486;51.034;5.262;2023-04-08T02:12:20;10.60;75.30
12839;DHT22;6486;51.034;5.262;2023-04-08T02:14:45;10.60;75.40
12839;DHT22;6486;51.034;5.262;2023-04-08T02:17:16;10.60;75.40
12839;DHT22;6486;51.034;5.262;2023-04-08T02:19:47;10.60;75.40
12839;DHT22;6486;51.034;5.262;2023-04-08T02:22:24;10.60;75.50
12839;DHT22;6486;51.034;5.262;2023-04-08T02:24:50;10.60;75.70
12839;DHT22;6486;51.034;5.262;2023-04-08T02:27:17;10.60;75.80
12839;DHT22;6486;51.034;5.262;2023-04-08T02:29:44;10.50;75.70
12839;DHT22;6486;51.034;5.262;2023-04-08T02:32:11;10.50;75.80
12839;DHT22;6486;51.034;5.262;2023-04-08T02:34:39;10.50;75.80
12839;DHT22;6486;51.034;5.262;2023-04-08T02:37:07;10.60;75.90
12839;DHT22;6486;51.034;5.262;2023-04-08T02:39:33;10.60;76.00
12839;DHT22;6486;51.034;5.262;2023-04-08T02:41:59;10.50;76.00
12839;DHT22;6486;51.034;5.262;2023-04-08T02:44:24;10.50;76.10
12839;DHT22;6486;51.034;5.262;2023-04-08T02:46:50;10.50;76.00
12839;DHT22;6486;51.034;5.262;2023-04-08T02:49:16;10.50;76.00
12839;DHT22;6486;51.034;5.262;2023-04-08T02:51:41;10.50;76.10
12839;DHT22;6486;51.034;5.262;2023-04-08T02:54:07;10.50;76.20
12839;DHT22;6486;51.034;5.262;2023-04-08T02:56:32;10.50;76.30
12839;DHT22;6486;51.034;5.262;2023-04-08T02:58:58;10.50;76.30
12839;DHT22;6486;51.034;5.262;2023-04-08T03:01:24;10.50;76.30
12839;DHT22;6486;51.034;5.262;2023-04-08T03:03:50;10.50;76.30
12839;DHT22;6486;51.034;5.262;2023-04-08T03:06:15;10.60;76.30
12839;DHT22;6486;51.034;5.262;2023-04-08T03:08:41;10.50;76.20
12839;DHT22;6486;51.034;5.262;2023-04-08T03:11:07;10.50;76.30
12839;DHT22;6486;51.034;5.262;2023-04-08T03:13:32;10.50;76.30
12839;DHT22;6486;51.034;5.262;2023-04-08T03:15:58;10.50;76.40
12839;DHT22;6486;51.034;5.262;2023-04-08T03:18:24;10.50;76.30
12839;DHT22;6486;51.034;5.262;2023-04-08T03:20:49;10.60;76.40
12839;DHT22;6486;51.034;5.262;2023-04-08T03:23:15;10.50;76.40
12839;DHT22;6486;51.034;5.262;2023-04-08T03:25:41;10.50;76.40
12839;DHT22;6486;51.034;5.262;2023-04-08T03:28:06;10.60;76.40
12839;DHT22;6486;51.034;5.262;2023-04-08T03:30:32;10.60;76.40
12839;DHT22;6486;51.034;5.262;2023-04-08T03:32:57;10.60;76.40
12839;DHT22;6486;51.034;5.262;2023-04-08T03:35:23;10.60;76.40
12839;DHT22;6486;51.034;5.262;2023-04-08T03:37:48;10.60;76.40
12839;DHT22;6486;51.034;5.262;2023-04-08T03:40:14;10.50;76.30
12839;DHT22;6486;51.034;5.262;2023-04-08T03:42:40;10.50;76.30
12839;DHT22;6486;51.034;5.262;2023-04-08T03:45:06;10.50;76.30
12839;DHT22;6486;51.034;5.262;2023-04-08T03:47:32;10.50;76.30
12839;DHT22;6486;51.034;5.262;2023-04-08T03:49:58;10.40;76.30
12839;DHT22;6486;51.034;5.262;2023-04-08T03:52:24;10.40;76.40
12839;DHT22;6486;51.034;5.262;2023-04-08T03:54:49;10.40;76.40
12839;DHT22;6486;51.034;5.262;2023-04-08T03:57:15;10.40;76.50
12839;DHT22;6486;51.034;5.262;2023-04-08T03:59:41;10.40;76.50
12839;DHT22;6486;51.034;5.262;2023-04-08T04:02:06;10.40;76.50
12839;DHT22;6486;51.034;5.262;2023-04-08T04:04:32;10.40;76.60
12839;DHT22;6486;51.034;5.262;2023-04-08T04:06:58;10.40;76.60
12839;DHT22;6486;51.034;5.262;2023-04-08T04:09:24;10.40;76.60
12839;DHT22;6486;51.034;5.262;2023-04-08T04:11:49;10.40;76.70
12839;DHT22;6486;51.034;5.262;2023-04-08T04:14:15;10.40;76.80
12839;DHT22;6486;51.034;5.262;2023-04-08T04:16:40;10.50;76.90
12839;DHT22;6486;51.034;5.262;2023-04-08T04:19:06;10.50;76.90
12839;DHT22;6486;51.034;5.262;2023-04-08T04:21:32;10.50;76.90
12839;DHT22;6486;51.034;5.262;2023-04-08T04:23:57;10.40;76.90
12839;DHT22;6486;51.034;5.262;2023-04-08T04:26:23;10.40;77.00
12839;DHT22;6486;51.034;5.262;2023-04-08T04:28:48;10.40;77.10
12839;DHT22;6486;51.034;5.262;2023-04-08T04:31:21;10.40;77.10
12839;DHT22;6486;51.034;5.262;2023-04-08T04:33:47;10.40;77.20
12839;DHT22;6486;51.034;5.262;2023-04-08T04:36:14;10.40;77.10
12839;DHT22;6486;51.034;5.262;2023-04-08T04:38:39;10.40;77.10
12839;DHT22;6486;51.034;5.262;2023-04-08T04:41:05;10.40;77.10
12839;DHT22;6486;51.034;5.262;2023-04-08T04:43:31;10.40;77.10
12839;DHT22;6486;51.034;5.262;2023-04-08T04:45:56;10.40;77.10
12839;DHT22;6486;51.034;5.262;2023-04-08T04:48:22;10.40;77.10
12839;DHT22;6486;51.034;5.262;2023-04-08T04:50:58;10.40;77.10
12839;DHT22;6486;51.034;5.262;2023-04-08T04:53:25;10.40;77.20
12839;DHT22;6486;51.034;5.262;2023-04-08T04:55:51;10.40;77.30
12839;DHT22;6486;51.034;5.262;2023-04-08T04:58:17;10.40;77.40
12839;DHT22;6486;51.034;5.262;2023-04-08T05:00:43;10.40;77.50
12839;DHT22;6486;51.034;5.262;2023-04-08T05:03:09;10.40;77.50
12839;DHT22;6486;51.034;5.262;2023-04-08T05:05:34;10.40;77.50
12839;DHT22;6486;51.034;5.262;2023-04-08T05:08:00;10.40;77.50
12839;DHT22;6486;51.034;5.262;2023-04-08T05:10:26;10.30;77.40
12839;DHT22;6486;51.034;5.262;2023-04-08T05:12:51;10.30;77.40
12839;DHT22;6486;51.034;5.262;2023-04-08T05:15:17;10.30;77.30
12839;DHT22;6486;51.034;5.262;2023-04-08T05:17:42;10.30;77.30
12839;DHT22;6486;51.034;5.262;2023-04-08T05:20:08;10.20;77.10
12839;DHT22;6486;51.034;5.262;2023-04-08T05:22:34;10.20;77.20
12839;DHT22;6486;51.034;5.262;2023-04-08T05:24:59;10.10;77.10
12839;DHT22;6486;51.034;5.262;2023-04-08T05:27:25;10.10;77.30
12839;DHT22;6486;51.034;5.262;2023-04-08T05:29:51;10.00;77.30
12839;DHT22;6486;51.034;5.262;2023-04-08T05:32:17;9.90;78.90
12839;DHT22;6486;51.034;5.262;2023-04-08T05:34:43;9.90;78.30
12839;DHT22;6486;51.034;5.262;2023-04-08T05:37:08;9.90;78.30
12839;DHT22;6486;51.034;5.262;2023-04-08T05:39:34;9.80;78.20
12839;DHT22;6486;51.034;5.262;2023-04-08T05:41:59;9.80;78.50
12839;DHT22;6486;51.034;5.262;2023-04-08T05:44:25;9.70;78.50
12839;DHT22;6486;51.034;5.262;2023-04-08T05:46:51;9.70;78.70
12839;DHT22;6486;51.034;5.262;2023-04-08T05:49:16;9.70;78.70
12839;DHT22;6486;51.034;5.262;2023-04-08T05:51:42;9.70;78.70
12839;DHT22;6486;51.034;5.262;2023-04-08T05:54:08;9.70;78.70
12839;DHT22;6486;51.034;5.262;2023-04-08T05:56:33;9.80;78.90
12839;DHT22;6486;51.034;5.262;2023-04-08T05:58:59;9.80;78.90
12839;DHT22;6486;51.034;5.262;2023-04-08T06:01:25;9.80;78.90
12839;DHT22;6486;51.034;5.262;2023-04-08T06:03:50;9.80;78.90
12839;DHT22;6486;51.034;5.262;2023-04-08T06:06:21;9.90;79.00
12839;DHT22;6486;51.034;5.262;2023-04-08T06:08:47;10.00;78.00
12839;DHT22;6486;51.034;5.262;2023-04-08T06:11:12;10.10;78.00
12839;DHT22;6486;51.034;5.262;2023-04-08T06:13:38;10.10;78.00
12839;DHT22;6486;51.034;5.262;2023-04-08T06:16:14;10.20;77.90
12839;DHT22;6486;51.034;5.262;2023-04-08T06:18:42;10.30;78.00
12839;DHT22;6486;51.034;5.262;2023-04-08T06:21:08;10.40;78.00
12839;DHT22;6486;51.034;5.262;2023-04-08T06:23:34;10.40;78.00
12839;DHT22;6486;51.034;5.262;2023-04-08T06:25:59;10.40;78.00
12839;DHT22;6486;51.034;5.262;2023-04-08T06:28:25;10.50;78.10
12839;DHT22;6486;51.034;5.262;2023-04-08T06:30:51;10.50;78.20
12839;DHT22;6486;51.034;5.262;2023-04-08T06:33:16;10.50;78.20
12839;DHT22;6486;51.034;5.262;2023-04-08T06:35:42;10.50;78.30
12839;DHT22;6486;51.034;5.262;2023-04-08T06:38:07;10.60;78.30
12839;DHT22;6486;51.034;5.262;2023-04-08T06:40:33;10.60;78.30
12839;DHT22;6486;51.034;5.262;2023-04-08T06:42:58;10.60;78.30
12839;DHT22;6486;51.034;5.262;2023-04-08T06:45:24;10.60;78.40
12839;DHT22;6486;51.034;5.262;2023-04-08T06:47:50;10.70;78.40
12839;DHT22;6486;51.034;5.262;2023-04-08T06:50:16;10.70;78.40
12839;DHT22;6486;51.034;5.262;2023-04-08T06:52:42;10.80;78.50
12839;DHT22;6486;51.034;5.262;2023-04-08T06:55:08;10.80;78.40
12839;DHT22;6486;51.034;5.262;2023-04-08T06:57:33;10.80;78.30
12839;DHT22;6486;51.034;5.262;2023-04-08T06:59:59;10.90;78.30
12839;DHT22;6486;51.034;5.262;2023-04-08T07:02:24;10.90;78.30
12839;DHT22;6486;51.034;5.262;2023-04-08T07:04:50;10.90;78.30
12839;DHT22;6486;51.034;5.262;2023-04-08T07:07:16;10.90;78.30
12839;DHT22;6486;51.034;5.262;2023-04-08T07:09:41;11.00;78.50
12839;DHT22;6486;51.034;5.262;2023-04-08T07:12:10;11.00;78.30
12839;DHT22;6486;51.034;5.262;2023-04-08T07:14:36;11.00;78.20
12839;DHT22;6486;51.034;5.262;2023-04-08T07:17:01;11.00;78.30
12839;DHT22;6486;51.034;5.262;2023-04-08T07:19:27;11.10;78.30
12839;DHT22;6486;51.034;5.262;2023-04-08T07:21:53;11.20;78.30
12839;DHT22;6486;51.034;5.262;2023-04-08T07:24:18;11.20;78.20
12839;DHT22;6486;51.034;5.262;2023-04-08T07:26:44;11.30;78.10
12839;DHT22;6486;51.034;5.262;2023-04-08T07:29:09;11.30;77.90
12839;DHT22;6486;51.034;5.262;2023-04-08T07:31:35;11.30;77.80
12839;DHT22;6486;51.034;5.262;2023-04-08T07:34:01;11.20;77.90
12839;DHT22;6486;51.034;5.262;2023-04-08T07:36:26;11.20;78.00
12839;DHT22;6486;51.034;5.262;2023-04-08T07:38:52;11.20;78.70
12839;DHT22;6486;51.034;5.262;2023-04-08T07:41:18;11.30;78.10
12839;DHT22;6486;51.034;5.262;2023-04-08T07:43:44;11.40;78.10
12839;DHT22;6486;51.034;5.262;2023-04-08T07:46:09;11.40;78.00
12839;DHT22;6486;51.034;5.262;2023-04-08T07:48:35;11.40;77.80
12839;DHT22;6486;51.034;5.262;2023-04-08T07:51:04;11.40;77.80
12839;DHT22;6486;51.034;5.262;2023-04-08T07:53:31;11.50;77.80
12839;DHT22;6486;51.034;5.262;2023-04-08T07:55:58;11.50;77.80
12839;DHT22;6486;51.034;5.262;2023-04-08T07:58:23;11.70;77.70
12839;DHT22;6486;51.034;5.262;2023-04-08T08:00:49;11.90;77.50
12839;DHT22;6486;51.034;5.262;2023-04-08T08:03:15;12.10;77.60
12839;DHT22;6486;51.034;5.262;2023-04-08T08:05:41;12.10;77.50
12839;DHT22;6486;51.034;5.262;2023-04-08T08:08:07;12.30;77.30
12839;DHT22;6486;51.034;5.262;2023-04-08T08:10:32;12.60;77.00
12839;DHT22;6486;51.034;5.262;2023-04-08T08:12:58;12.80;76.80
12839;DHT22;6486;51.034;5.262;2023-04-08T08:15:24;12.80;76.40
12839;DHT22;6486;51.034;5.262;2023-04-08T08:17:49;13.00;76.30
12839;DHT22;6486;51.034;5.262;2023-04-08T08:20:15;13.10;76.10
12839;DHT22;6486;51.034;5.262;2023-04-08T08:22:41;13.10;76.00
12839;DHT22;6486;51.034;5.262;2023-04-08T08:25:09;13.00;75.70
12839;DHT22;6486;51.034;5.262;2023-04-08T08:27:34;12.90;75.70
12839;DHT22;6486;51.034;5.262;2023-04-08T08:30:01;12.90;75.90
12839;DHT22;6486;51.034;5.262;2023-04-08T08:32:28;13.00;75.70
12839;DHT22;6486;51.034;5.262;2023-04-08T08:34:53;13.10;75.50
12839;DHT22;6486;51.034;5.262;2023-04-08T08:37:19;13.10;75.40
12839;DHT22;6486;51.034;5.262;2023-04-08T08:39:44;13.00;75.20
12839;DHT22;6486;51.034;5.262;2023-04-08T08:42:23;12.90;75.20
12839;DHT22;6486;51.034;5.262;2023-04-08T08:44:49;12.80;75.20
12839;DHT22;6486;51.034;5.262;2023-04-08T08:47:16;12.80;75.20
12839;DHT22;6486;51.034;5.262;2023-04-08T08:49:43;12.70;75.10
12839;DHT22;6486;51.034;5.262;2023-04-08T08:52:08;12.80;75.10
12839;DHT22;6486;51.034;5.262;2023-04-08T08:54:34;13.00;74.90
12839;DHT22;6486;51.034;5.262;2023-04-08T08:57:00;13.10;74.80
12839;DHT22;6486;51.034;5.262;2023-04-08T08:59:25;13.20;74.70
12839;DHT22;6486;51.034;5.262;2023-04-08T09:01:51;13.30;74.50
12839;DHT22;6486;51.034;5.262;2023-04-08T09:04:20;13.30;74.50
12839;DHT22;6486;51.034;5.262;2023-04-08T09:07:05;13.30;74.40
12839;DHT22;6486;51.034;5.262;2023-04-08T09:09:49;13.40;74.20
12839;DHT22;6486;51.034;5.262;2023-04-08T09:12:15;13.40;74.00
12839;DHT22;6486;51.034;5.262;2023-04-08T09:14:41;13.50;73.50
12839;DHT22;6486;51.034;5.262;2023-04-08T09:17:07;13.50;73.30
12839;DHT22;6486;51.034;5.262;2023-04-08T09:19:32;13.50;73.30
12839;DHT22;6486;51.034;5.262;2023-04-08T09:22:11;13.60;73.40
12839;DHT22;6486;51.034;5.262;2023-04-08T09:24:37;13.70;73.90
12839;DHT22;6486;51.034;5.262;2023-04-08T09:27:04;13.80;73.10
12839;DHT22;6486;51.034;5.262;2023-04-08T09:29:30;13.80;72.60
12839;DHT22;6486;51.034;5.262;2023-04-08T09:31:57;14.00;72.40
12839;DHT22;6486;51.034;5.262;2023-04-08T09:34:25;14.20;71.90
12839;DHT22;6486;51.034;5.262;2023-04-08T09:36:52;14.50;71.00
12839;DHT22;6486;51.034;5.262;2023-04-08T09:39:18;14.80;70.50
12839;DHT22;6486;51.034;5.262;2023-04-08T09:41:44;15.10;70.00
12839;DHT22;6486;51.034;5.262;2023-04-08T09:44:12;15.40;69.50
12839;DHT22;6486;51.034;5.262;2023-04-08T09:52:33;16.20;68.60
12839;DHT22;6486;51.034;5.262;2023-04-08T09:55:07;16.40;68.20
12839;DHT22;6486;51.034;5.262;2023-04-08T09:57:43;16.70;68.00
12839;DHT22;6486;51.034;5.262;2023-04-08T10:00:09;16.90;67.60
12839;DHT22;6486;51.034;5.262;2023-04-08T10:05:18;17.20;66.40
12839;DHT22;6486;51.034;5.262;2023-04-08T10:07:45;17.30;64.90
12839;DHT22;6486;51.034;5.262;2023-04-08T10:10:11;17.30;64.90
12839;DHT22;6486;51.034;5.262;2023-04-08T10:12:38;17.40;65.10
12839;DHT22;6486;51.034;5.262;2023-04-08T10:15:30;17.60;65.20
12839;DHT22;6486;51.034;5.262;2023-04-08T10:20:46;18.00;63.90
12839;DHT22;6486;51.034;5.262;2023-04-08T10:23:16;18.20;62.90
12839;DHT22;6486;51.034;5.262;2023-04-08T10:25:43;18.40;61.90
12839;DHT22;6486;51.034;5.262;2023-04-08T10:30:47;18.30;61.20
12839;DHT22;6486;51.034;5.262;2023-04-08T10:33:18;18.10;61.50
12839;DHT22;6486;51.034;5.262;2023-04-08T10:35:52;17.90;61.80
12839;DHT22;6486;51.034;5.262;2023-04-08T10:38:19;17.70;61.90
12839;DHT22;6486;51.034;5.262;2023-04-08T10:40:47;17.60;62.20
12839;DHT22;6486;51.034;5.262;2023-04-08T10:43:14;17.70;62.10
12839;DHT22;6486;51.034;5.262;2023-04-08T10:45:41;18.00;61.50
12839;DHT22;6486;51.034;5.262;2023-04-08T10:48:19;18.20;61.30
12839;DHT22;6486;51.034;5.262;2023-04-08T10:51:00;18.30;59.60
12839;DHT22;6486;51.034;5.262;2023-04-08T10:56:12;18.10;58.60
12839;DHT22;6486;51.034;5.262;2023-04-08T10:58:53;17.60;58.50
12839;DHT22;6486;51.034;5.262;2023-04-08T11:01:21;17.10;58.50
12839;DHT22;6486;51.034;5.262;2023-04-08T11:03:47;17.00;59.40
12839;DHT22;6486;51.034;5.262;2023-04-08T11:06:13;17.20;59.80
12839;DHT22;6486;51.034;5.262;2023-04-08T11:08:39;17.50;59.00
12839;DHT22;6486;51.034;5.262;2023-04-08T11:11:06;17.70;59.00
12839;DHT22;6486;51.034;5.262;2023-04-08T11:13:38;17.90;59.20
12839;DHT22;6486;51.034;5.262;2023-04-08T11:16:05;18.10;58.80
12839;DHT22;6486;51.034;5.262;2023-04-08T11:18:33;17.90;57.40
12839;DHT22;6486;51.034;5.262;2023-04-08T11:20:59;17.80;57.30
12839;DHT22;6486;51.034;5.262;2023-04-08T11:23:26;18.00;57.30
12839;DHT22;6486;51.034;5.262;2023-04-08T11:25:52;18.30;57.20
12839;DHT22;6486;51.034;5.262;2023-04-08T11:28:18;18.60;57.00
12839;DHT22;6486;51.034;5.262;2023-04-08T11:30:44;18.70;56.50
12839;DHT22;6486;51.034;5.262;2023-04-08T11:33:14;18.60;56.20
12839;DHT22;6486;51.034;5.262;2023-04-08T11:35:42;18.50;56.10
12839;DHT22;6486;51.034;5.262;2023-04-08T11:38:09;18.30;56.50
12839;DHT22;6486;51.034;5.262;2023-04-08T11:40:35;18.10;57.00
12839;DHT22;6486;51.034;5.262;2023-04-08T11:43:19;18.00;57.10
12839;DHT22;6486;51.034;5.262;2023-04-08T11:45:45;18.20;56.50
12839;DHT22;6486;51.034;5.262;2023-04-08T11:48:11;18.40;56.40
12839;DHT22;6486;51.034;5.262;2023-04-08T11:50:38;18.50;56.60
12839;DHT22;6486;51.034;5.262;2023-04-08T11:53:23;18.60;57.10
12839;DHT22;6486;51.034;5.262;2023-04-08T11:55:49;18.90;56.30
12839;DHT22;6486;51.034;5.262;2023-04-08T11:58:15;19.20;56.20
12839;DHT22;6486;51.034;5.262;2023-04-08T12:00:42;19.50;55.90
12839;DHT22;6486;51.034;5.262;2023-04-08T12:03:08;19.70;55.20
12839;DHT22;6486;51.034;5.262;2023-04-08T12:05:33;19.90;54.60
12839;DHT22;6486;51.034;5.262;2023-04-08T12:07:59;19.70;54.40
12839;DHT22;6486;51.034;5.262;2023-04-08T12:10:25;19.50;54.60
12839;DHT22;6486;51.034;5.262;2023-04-08T12:12:51;19.20;54.80
12839;DHT22;6486;51.034;5.262;2023-04-08T12:15:17;18.80;54.90
12839;DHT22;6486;51.034;5.262;2023-04-08T12:17:42;18.60;54.70
12839;DHT22;6486;51.034;5.262;2023-04-08T12:20:09;18.60;54.80
12839;DHT22;6486;51.034;5.262;2023-04-08T12:22:35;18.60;54.60
12839;DHT22;6486;51.034;5.262;2023-04-08T12:25:01;18.70;54.30
12839;DHT22;6486;51.034;5.262;2023-04-08T12:27:28;19.00;54.20
12839;DHT22;6486;51.034;5.262;2023-04-08T12:29:54;19.20;53.00
12839;DHT22;6486;51.034;5.262;2023-04-08T12:32:20;19.30;53.10
12839;DHT22;6486;51.034;5.262;2023-04-08T12:34:46;19.10;52.80
12839;DHT22;6486;51.034;5.262;2023-04-08T12:37:11;18.90;52.90
12839;DHT22;6486;51.034;5.262;2023-04-08T12:39:37;18.70;53.00
12839;DHT22;6486;51.034;5.262;2023-04-08T12:42:03;18.40;53.10
12839;DHT22;6486;51.034;5.262;2023-04-08T12:44:29;18.20;53.20
12839;DHT22;6486;51.034;5.262;2023-04-08T12:46:55;18.40;53.10
12839;DHT22;6486;51.034;5.262;2023-04-08T12:49:23;18.60;53.00
12839;DHT22;6486;51.034;5.262;2023-04-08T12:51:48;18.90;53.20
12839;DHT22;6486;51.034;5.262;2023-04-08T12:54:14;19.20;53.00
12839;DHT22;6486;51.034;5.262;2023-04-08T12:56:41;19.50;53.00
12839;DHT22;6486;51.034;5.262;2023-04-08T12:59:07;19.80;52.50
12839;DHT22;6486;51.034;5.262;2023-04-08T13:01:33;20.00;52.30
12839;DHT22;6486;51.034;5.262;2023-04-08T13:03:59;20.10;51.50
12839;DHT22;6486;51.034;5.262;2023-04-08T13:06:24;20.00;51.40
12839;DHT22;6486;51.034;5.262;2023-04-08T13:08:51;20.00;51.10
12839;DHT22;6486;51.034;5.262;2023-04-08T13:11:16;20.20;51.00
12839;DHT22;6486;51.034;5.262;2023-04-08T13:13:42;20.50;50.70
12839;DHT22;6486;51.034;5.262;2023-04-08T13:16:08;20.60;49.90
12839;DHT22;6486;51.034;5.262;2023-04-08T13:18:34;20.80;49.60
12839;DHT22;6486;51.034;5.262;2023-04-08T13:21:00;21.00;49.40
12839;DHT22;6486;51.034;5.262;2023-04-08T13:23:26;21.20;48.90
12839;DHT22;6486;51.034;5.262;2023-04-08T13:25:51;21.20;48.20
12839;DHT22;6486;51.034;5.262;2023-04-08T13:28:17;21.00;47.50
12839;DHT22;6486;51.034;5.262;2023-04-08T13:30:43;20.60;46.90
12839;DHT22;6486;51.034;5.262;2023-04-08T13:33:08;20.20;47.50
12839;DHT22;6486;51.034;5.262;2023-04-08T13:35:34;20.10;48.00
12839;DHT22;6486;51.034;5.262;2023-04-08T13:37:59;20.00;48.00
12839;DHT22;6486;51.034;5.262;2023-04-08T13:40:25;20.20;47.90
12839;DHT22;6486;51.034;5.262;2023-04-08T13:42:52;20.20;47.90
12839;DHT22;6486;51.034;5.262;2023-04-08T13:45:17;20.20;47.30
12839;DHT22;6486;51.034;5.262;2023-04-08T13:47:44;20.30;46.70
12839;DHT22;6486;51.034;5.262;2023-04-08T13:50:10;20.50;45.70
12839;DHT22;6486;51.034;5.262;2023-04-08T13:52:35;20.60;45.60
12839;DHT22;6486;51.034;5.262;2023-04-08T13:55:01;20.70;45.70
12839;DHT22;6486;51.034;5.262;2023-04-08T13:57:27;20.90;45.80
12839;DHT22;6486;51.034;5.262;2023-04-08T13:59:52;21.00;45.90
12839;DHT22;6486;51.034;5.262;2023-04-08T14:02:18;21.20;46.00
12839;DHT22;6486;51.034;5.262;2023-04-08T14:04:44;21.40;46.10
12839;DHT22;6486;51.034;5.262;2023-04-08T14:07:11;21.60;46.10
12839;DHT22;6486;51.034;5.262;2023-04-08T14:09:37;21.60;45.90
12839;DHT22;6486;51.034;5.262;2023-04-08T14:12:02;21.40;45.70
12839;DHT22;6486;51.034;5.262;2023-04-08T14:14:28;21.20;46.10
12839;DHT22;6486;51.034;5.262;2023-04-08T14:16:53;21.10;46.20
12839;DHT22;6486;51.034;5.262;2023-04-08T14:19:19;20.90;46.50
12839;DHT22;6486;51.034;5.262;2023-04-08T14:21:45;20.80;46.10
12839;DHT22;6486;51.034;5.262;2023-04-08T14:24:10;20.80;46.10
12839;DHT22;6486;51.034;5.262;2023-04-08T14:26:36;20.80;46.00
12839;DHT22;6486;51.034;5.262;2023-04-08T14:29:03;20.90;45.50
12839;DHT22;6486;51.034;5.262;2023-04-08T14:31:30;21.00;45.60
12839;DHT22;6486;51.034;5.262;2023-04-08T14:33:56;20.90;45.90
12839;DHT22;6486;51.034;5.262;2023-04-08T14:36:22;20.70;45.60
12839;DHT22;6486;51.034;5.262;2023-04-08T14:38:49;20.60;45.70
12839;DHT22;6486;51.034;5.262;2023-04-08T14:41:15;20.50;45.90
12839;DHT22;6486;51.034;5.262;2023-04-08T14:43:40;20.40;45.80
12839;DHT22;6486;51.034;5.262;2023-04-08T14:46:06;20.30;45.70
12839;DHT22;6486;51.034;5.262;2023-04-08T14:48:32;20.20;45.50
12839;DHT22;6486;51.034;5.262;2023-04-08T14:50:57;20.20;45.10
12839;DHT22;6486;51.034;5.262;2023-04-08T14:53:24;20.10;45.10
12839;DHT22;6486;51.034;5.262;2023-04-08T14:55:50;20.10;45.20
12839;DHT22;6486;51.034;5.262;2023-04-08T14:58:15;20.10;45.30
12839;DHT22;6486;51.034;5.262;2023-04-08T15:00:41;20.10;45.40
12839;DHT22;6486;51.034;5.262;2023-04-08T15:03:09;20.20;45.30
12839;DHT22;6486;51.034;5.262;2023-04-08T15:05:36;20.10;45.90
12839;DHT22;6486;51.034;5.262;2023-04-08T15:08:03;20.20;45.40
12839;DHT22;6486;51.034;5.262;2023-04-08T15:10:29;20.10;45.40
12839;DHT22;6486;51.034;5.262;2023-04-08T15:12:54;20.10;45.30
12839;DHT22;6486;51.034;5.262;2023-04-08T15:15:20;20.10;45.20
12839;DHT22;6486;51.034;5.262;2023-04-08T15:17:46;20.20;44.80
12839;DHT22;6486;51.034;5.262;2023-04-08T15:20:12;20.30;44.60
12839;DHT22;6486;51.034;5.262;2023-04-08T15:22:38;20.70;44.80
12839;DHT22;6486;51.034;5.262;2023-04-08T15:25:04;20.90;44.80
12839;DHT22;6486;51.034;5.262;2023-04-08T15:27:31;21.10;44.50
12839;DHT22;6486;51.034;5.262;2023-04-08T15:29:56;21.20;44.40
12839;DHT22;6486;51.034;5.262;2023-04-08T15:32:22;21.50;44.60
12839;DHT22;6486;51.034;5.262;2023-04-08T15:34:48;21.90;44.40
12839;DHT22;6486;51.034;5.262;2023-04-08T15:37:15;22.30;44.20
12839;DHT22;6486;51.034;5.262;2023-04-08T15:39:40;22.50;43.60
12839;DHT22;6486;51.034;5.262;2023-04-08T15:42:07;22.80;43.50
12839;DHT22;6486;51.034;5.262;2023-04-08T15:44:32;23.10;43.20
12839;DHT22;6486;51.034;5.262;2023-04-08T15:46:58;23.50;43.00
12839;DHT22;6486;51.034;5.262;2023-04-08T15:49:23;23.90;43.00
12839;DHT22;6486;51.034;5.262;2023-04-08T15:51:49;24.40;42.50
12839;DHT22;6486;51.034;5.262;2023-04-08T15:54:16;24.80;41.70
12839;DHT22;6486;51.034;5.262;2023-04-08T15:56:42;25.20;40.80
12839;DHT22;6486;51.034;5.262;2023-04-08T15:59:08;25.50;39.80
12839;DHT22;6486;51.034;5.262;2023-04-08T16:01:34;25.50;40.30
12839;DHT22;6486;51.034;5.262;2023-04-08T16:04:00;25.60;39.30